createdAt,value
2018-08-12T00:01:05.135Z,19.20
2018-08-12T00:06:39.125Z,19.20
2018-08-12T00:09:13.788Z,19.20
2018-08-12T00:12:25.537Z,19.30
2018-08-12T00:17:47.910Z,19.20
2018-08-12T00:20:20.502Z,19.20
2018-08-12T00:22:51.375Z,19.30
2018-08-12T00:25:23.451Z,19.30
2018-08-12T00:27:55.975Z,19.30
2018-08-12T00:30:28.281Z,19.30
2018-08-12T00:35:45.941Z,19.30
2018-08-12T00:38:18.816Z,19.30
2018-08-12T00:40:49.620Z,19.40
2018-08-12T00:43:21.962Z,19.40
2018-08-12T00:45:53.331Z,19.40
2018-08-12T00:48:24.324Z,19.40
2018-08-12T00:50:55.390Z,19.40
2018-08-12T00:53:27.304Z,19.40
2018-08-12T00:55:58.349Z,19.40
2018-08-12T00:58:29.794Z,19.50
2018-08-12T01:01:08.059Z,19.50
2018-08-12T01:03:43.374Z,19.50
2018-08-12T01:06:17.544Z,19.50
2018-08-12T01:08:50.717Z,19.50
2018-08-12T01:11:24.568Z,19.40
2018-08-12T01:13:54.804Z,19.50
2018-08-12T01:19:16.578Z,19.50
2018-08-12T01:21:52.076Z,19.50
2018-08-12T01:24:22.600Z,19.40
2018-08-12T01:26:53.642Z,19.40
2018-08-12T01:29:24.896Z,19.40
2018-08-12T01:31:56.624Z,19.40
2018-08-12T01:34:37.140Z,19.40
2018-08-12T01:37:11.409Z,19.40
2018-08-12T01:39:44.671Z,19.40
2018-08-12T01:42:17.279Z,19.30
2018-08-12T01:47:38.154Z,19.30
2018-08-12T01:50:17.178Z,19.30
2018-08-12T01:52:47.702Z,19.30
2018-08-12T01:55:18.485Z,19.30
2018-08-12T01:57:49.317Z,19.30
2018-08-12T02:00:22.085Z,18.80
2018-08-12T02:02:52.019Z,19.30
2018-08-12T02:05:22.290Z,19.30
2018-08-12T02:07:52.345Z,19.30
2018-08-12T02:10:22.718Z,19.30
2018-08-12T02:12:52.984Z,19.30
2018-08-12T02:15:23.292Z,19.30
2018-08-12T02:17:53.707Z,19.30
2018-08-12T02:20:24.004Z,19.30
2018-08-12T02:25:49.895Z,19.30
2018-08-12T02:28:33.937Z,19.30
2018-08-12T02:34:04.190Z,19.40
2018-08-12T02:36:48.290Z,19.40
2018-08-12T02:39:24.046Z,19.40
2018-08-12T02:44:55.568Z,19.40
2018-08-12T02:47:25.844Z,19.40
2018-08-12T02:50:21.095Z,19.40
2018-08-12T02:52:57.279Z,19.40
2018-08-12T02:55:32.580Z,19.40
2018-08-12T02:58:04.776Z,19.40
2018-08-12T03:00:35.089Z,19.40
2018-08-12T03:03:08.226Z,19.40
2018-08-12T03:05:39.644Z,19.50
2018-08-12T03:08:10.370Z,19.50
2018-08-12T03:10:42.595Z,19.40
2018-08-12T03:13:13.225Z,19.50
2018-08-12T03:15:43.386Z,19.50
2018-08-12T03:18:13.772Z,19.50
2018-08-12T03:20:44.269Z,19.50
2018-08-12T03:23:15.138Z,19.50
2018-08-12T03:25:45.948Z,19.50
2018-08-12T03:28:15.880Z,19.50
2018-08-12T03:30:46.163Z,19.50
2018-08-12T03:33:16.469Z,19.60
2018-08-12T03:35:46.703Z,19.60
2018-08-12T03:38:16.846Z,19.60
2018-08-12T03:40:47.405Z,19.60
2018-08-12T03:43:17.530Z,19.60
2018-08-12T03:45:47.937Z,19.60
2018-08-12T03:48:18.617Z,19.60
2018-08-12T03:50:49.045Z,19.60
2018-08-12T03:53:19.421Z,19.60
2018-08-12T03:55:50.278Z,19.60
2018-08-12T03:58:20.657Z,19.60
2018-08-12T04:00:50.937Z,19.60
2018-08-12T04:03:22.489Z,19.60
2018-08-12T04:05:53.010Z,19.60
2018-08-12T04:08:23.409Z,19.60
2018-08-12T04:10:53.789Z,19.60
2018-08-12T04:13:24.754Z,19.60
2018-08-12T04:15:54.851Z,19.60
2018-08-12T04:18:28.388Z,19.60
2018-08-12T04:20:58.642Z,19.60
2018-08-12T04:23:28.747Z,19.60
2018-08-12T04:25:59.322Z,19.60
2018-08-12T04:28:29.627Z,19.60
2018-08-12T04:31:00.864Z,19.60
2018-08-12T04:33:31.207Z,19.60
2018-08-12T04:36:01.663Z,19.60
2018-08-12T04:38:31.991Z,19.60
2018-08-12T04:41:02.373Z,19.60
2018-08-12T04:43:32.463Z,19.60
2018-08-12T04:46:03.033Z,19.60
2018-08-12T04:48:33.783Z,19.60
2018-08-12T04:51:04.318Z,19.70
2018-08-12T04:53:34.690Z,19.70
2018-08-12T04:56:04.859Z,19.70
2018-08-12T04:58:35.021Z,19.70
2018-08-12T05:01:05.278Z,19.70
2018-08-12T05:03:35.484Z,19.70
2018-08-12T05:06:05.728Z,19.70
2018-08-12T05:08:36.082Z,19.70
2018-08-12T05:11:06.532Z,19.70
2018-08-12T05:13:36.681Z,19.70
2018-08-12T05:16:07.556Z,19.70
2018-08-12T05:18:37.763Z,19.70
2018-08-12T05:21:09.098Z,19.70
2018-08-12T05:23:40.270Z,19.70
2018-08-12T05:26:10.741Z,19.70
2018-08-12T05:28:41.020Z,19.70
2018-08-12T05:31:11.360Z,19.70
2018-08-12T05:33:42.248Z,19.70
2018-08-12T05:36:12.860Z,19.70
2018-08-12T05:38:42.812Z,19.70
2018-08-12T05:41:13.300Z,19.70
2018-08-12T05:43:43.484Z,19.70
2018-08-12T05:46:14.356Z,19.70
2018-08-12T05:48:44.338Z,19.80
2018-08-12T05:51:14.592Z,19.80
2018-08-12T05:53:44.749Z,19.80
2018-08-12T05:56:15.976Z,19.80
2018-08-12T05:58:46.554Z,19.80
2018-08-12T06:01:17.111Z,19.80
2018-08-12T06:03:47.334Z,19.90
2018-08-12T06:06:17.467Z,19.90
2018-08-12T06:08:47.629Z,19.90
2018-08-12T06:11:17.897Z,19.90
2018-08-12T06:13:48.467Z,19.90
2018-08-12T06:16:18.696Z,20.00
2018-08-12T06:18:49.088Z,20.00
2018-08-12T06:21:19.093Z,20.00
2018-08-12T06:23:49.597Z,20.00
2018-08-12T06:26:20.026Z,20.00
2018-08-12T06:28:50.051Z,20.00
2018-08-12T06:31:20.934Z,20.00
2018-08-12T06:33:51.202Z,20.10
2018-08-12T06:36:21.429Z,20.10
2018-08-12T06:38:52.521Z,20.10
2018-08-12T06:41:23.385Z,20.20
2018-08-12T06:43:53.914Z,20.30
2018-08-12T06:46:24.224Z,20.30
2018-08-12T06:48:54.491Z,20.40
2018-08-12T06:51:24.598Z,20.40
2018-08-12T06:53:55.394Z,20.50
2018-08-12T06:56:25.630Z,20.50
2018-08-12T06:58:55.653Z,20.50
2018-08-12T07:01:25.592Z,20.60
2018-08-12T07:03:55.941Z,20.60
2018-08-12T07:06:26.395Z,20.70
2018-08-12T07:08:56.608Z,20.80
2018-08-12T07:11:28.670Z,20.90
2018-08-12T07:13:59.326Z,21.00
2018-08-12T07:16:29.614Z,21.10
2018-08-12T07:19:07.474Z,21.10
2018-08-12T07:21:37.690Z,21.20
2018-08-12T07:24:08.037Z,21.20
2018-08-12T07:26:38.371Z,21.20
2018-08-12T07:29:09.848Z,21.20
2018-08-12T07:31:40.395Z,21.20
2018-08-12T07:34:10.622Z,21.20
2018-08-12T07:36:40.812Z,21.20
2018-08-12T07:39:11.654Z,21.20
2018-08-12T07:41:42.665Z,21.30
2018-08-12T07:44:13.665Z,21.30
2018-08-12T07:46:45.157Z,21.30
2018-08-12T07:49:15.433Z,21.30
2018-08-12T07:51:46.507Z,21.30
2018-08-12T07:54:16.670Z,21.40
2018-08-12T07:56:47.042Z,21.50
2018-08-12T07:59:17.444Z,21.50
2018-08-12T08:01:48.672Z,21.60
2018-08-12T08:04:19.428Z,21.70
2018-08-12T08:06:50.418Z,21.80
2018-08-12T08:09:20.858Z,21.90
2018-08-12T08:11:51.204Z,21.90
2018-08-12T08:14:21.291Z,22.00
2018-08-12T08:16:51.818Z,22.00
2018-08-12T08:19:23.040Z,22.00
2018-08-12T08:21:53.162Z,22.10
2018-08-12T08:24:24.306Z,22.00
2018-08-12T08:26:54.527Z,22.00
2018-08-12T08:29:24.801Z,22.00
2018-08-12T08:31:55.247Z,22.00
2018-08-12T08:34:25.847Z,22.00
2018-08-12T08:36:57.420Z,22.10
2018-08-12T08:39:27.448Z,22.10
2018-08-12T08:41:57.568Z,22.20
2018-08-12T08:44:28.466Z,22.20
2018-08-12T08:46:58.887Z,22.30
2018-08-12T08:49:29.089Z,22.40
2018-08-12T08:51:59.517Z,22.40
2018-08-12T08:54:30.638Z,22.40
2018-08-12T08:57:01.533Z,22.40
2018-08-12T08:59:31.847Z,22.40
2018-08-12T09:02:02.029Z,22.40
2018-08-12T09:04:33.680Z,22.40
2018-08-12T09:07:03.988Z,22.40
2018-08-12T09:09:34.376Z,22.20
2018-08-12T09:12:04.557Z,22.40
2018-08-12T09:14:35.066Z,22.40
2018-08-12T09:17:05.327Z,22.40
2018-08-12T09:19:35.672Z,22.50
2018-08-12T09:22:06.661Z,22.50
2018-08-12T09:24:37.243Z,22.50
2018-08-12T09:27:07.636Z,22.50
2018-08-12T09:29:38.658Z,22.40
2018-08-12T09:32:08.972Z,22.40
2018-08-12T09:34:39.548Z,22.30
2018-08-12T09:37:10.248Z,22.30
2018-08-12T09:39:40.713Z,22.40
2018-08-12T09:42:11.026Z,22.40
2018-08-12T09:44:41.314Z,22.40
2018-08-12T09:47:11.497Z,22.40
2018-08-12T09:49:41.827Z,22.40
2018-08-12T09:52:11.945Z,22.40
2018-08-12T09:54:42.205Z,22.40
2018-08-12T09:57:12.393Z,22.40
2018-08-12T09:59:42.646Z,22.50
2018-08-12T10:02:12.710Z,22.50
2018-08-12T10:04:43.132Z,22.60
2018-08-12T10:07:14.767Z,22.60
2018-08-12T10:09:45.648Z,22.60
2018-08-12T10:12:16.529Z,22.70
2018-08-12T10:14:47.774Z,22.40
2018-08-12T10:17:18.371Z,22.80
2018-08-12T10:19:49.638Z,22.80
2018-08-12T10:22:20.677Z,22.80
2018-08-12T10:24:52.778Z,22.80
2018-08-12T10:27:23.013Z,22.80
2018-08-12T10:29:53.518Z,22.80
2018-08-12T10:32:24.105Z,22.80
2018-08-12T10:34:55.151Z,22.80
2018-08-12T10:37:26.777Z,22.80
2018-08-12T10:39:57.474Z,22.90
2018-08-12T10:42:28.256Z,22.90
2018-08-12T10:44:58.755Z,22.90
2018-08-12T10:47:28.981Z,22.90
2018-08-12T10:49:59.207Z,22.90
2018-08-12T10:52:29.997Z,22.80
2018-08-12T10:55:00.955Z,22.80
2018-08-12T10:57:31.879Z,22.80
2018-08-12T11:00:03.553Z,22.80
2018-08-12T11:07:28.803Z,22.90
2018-08-12T11:09:59.095Z,22.90
2018-08-12T11:12:29.957Z,22.90
2018-08-12T11:15:00.332Z,22.90
2018-08-12T11:17:30.732Z,22.90
2018-08-12T11:20:01.419Z,22.90
2018-08-12T11:22:32.251Z,22.90
2018-08-12T11:25:02.895Z,22.90
2018-08-12T11:27:34.265Z,22.80
2018-08-12T11:30:06.746Z,22.80
2018-08-12T11:32:38.628Z,22.80
2018-08-12T11:35:12.325Z,22.70
2018-08-12T11:37:45.463Z,22.70
2018-08-12T11:40:16.611Z,22.70
2018-08-12T11:42:47.816Z,22.80
2018-08-12T11:45:19.226Z,22.80
2018-08-12T11:47:50.529Z,22.90
2018-08-12T11:50:20.853Z,23.00
2018-08-12T11:52:52.086Z,23.00
2018-08-12T11:55:22.866Z,23.00
2018-08-12T11:57:53.190Z,23.00
2018-08-12T12:00:24.187Z,23.10
2018-08-12T12:02:54.608Z,23.10
2018-08-12T12:05:24.756Z,23.20
2018-08-12T12:07:55.486Z,23.30
2018-08-12T12:10:26.314Z,23.40
2018-08-12T12:12:58.589Z,23.50
2018-08-12T12:15:29.279Z,23.60
2018-08-12T12:18:00.046Z,23.70
2018-08-12T12:20:30.647Z,23.80
2018-08-12T12:23:01.761Z,23.90
2018-08-12T12:25:33.076Z,23.90
2018-08-12T12:28:03.713Z,24.00
2018-08-12T12:30:35.467Z,24.00
2018-08-12T12:33:07.101Z,24.00
2018-08-12T12:35:38.902Z,24.00
2018-08-12T12:38:10.077Z,24.10
2018-08-12T12:40:40.098Z,24.20
2018-08-12T12:43:11.280Z,24.30
2018-08-12T12:45:42.729Z,24.60
2018-08-12T12:48:14.173Z,25.00
2018-08-12T12:50:44.401Z,25.40
2018-08-12T12:53:16.920Z,25.70
2018-08-12T12:55:48.498Z,26.10
2018-08-12T12:58:19.723Z,26.40
2018-08-12T13:00:49.871Z,26.80
2018-08-12T13:03:21.124Z,27.10
2018-08-12T13:05:52.716Z,27.40
2018-08-12T13:08:23.718Z,27.50
2018-08-12T13:10:53.817Z,27.50
2018-08-12T13:13:25.497Z,27.40
2018-08-12T13:15:56.628Z,27.30
2018-08-12T13:18:26.899Z,27.00
2018-08-12T13:20:57.496Z,26.80
2018-08-12T13:23:28.230Z,26.50
2018-08-12T13:25:59.410Z,26.20
2018-08-12T13:28:30.999Z,26.20
2018-08-12T13:31:01.331Z,25.90
2018-08-12T13:33:31.676Z,25.90
2018-08-12T13:36:01.886Z,25.90
2018-08-12T13:38:33.085Z,25.90
2018-08-12T13:41:04.366Z,25.80
2018-08-12T13:43:34.379Z,25.80
2018-08-12T13:46:04.467Z,25.70
2018-08-12T13:48:34.762Z,25.70
2018-08-12T13:51:04.909Z,25.70
2018-08-12T13:53:35.182Z,25.60
2018-08-12T13:56:05.850Z,25.50
2018-08-12T13:58:36.318Z,25.50
2018-08-12T14:01:06.782Z,25.40
2018-08-12T14:03:37.288Z,25.40
2018-08-12T14:06:07.856Z,25.30
2018-08-12T14:08:40.014Z,25.30
2018-08-12T14:11:11.645Z,25.30
2018-08-12T14:13:41.991Z,25.20
2018-08-12T14:16:12.246Z,25.10
2018-08-12T14:18:42.429Z,25.10
2018-08-12T14:21:13.630Z,25.00
2018-08-12T14:23:46.660Z,24.80
2018-08-12T14:26:18.181Z,24.70
2018-08-12T14:28:48.734Z,24.60
2018-08-12T14:31:24.542Z,24.40
2018-08-12T14:33:55.453Z,24.30
2018-08-12T14:36:28.020Z,24.20
2018-08-12T14:38:59.401Z,24.10
2018-08-12T14:41:30.421Z,24.00
2018-08-12T14:44:02.508Z,24.00
2018-08-12T14:46:32.729Z,24.00
2018-08-12T14:49:03.719Z,24.00
2018-08-12T14:51:34.050Z,24.10
2018-08-12T14:54:05.472Z,24.20
2018-08-12T14:56:37.487Z,24.30
2018-08-12T14:59:08.113Z,24.30
2018-08-12T15:01:38.950Z,24.40
2018-08-12T15:04:09.777Z,24.50
2018-08-12T15:06:40.802Z,24.50
2018-08-12T15:09:12.551Z,24.50
2018-08-12T15:11:44.586Z,24.50
2018-08-12T15:14:16.826Z,24.50
2018-08-12T15:16:47.299Z,24.50
2018-08-12T15:19:17.630Z,24.40
2018-08-12T15:21:49.029Z,24.30
2018-08-12T15:24:20.202Z,24.30
2018-08-12T15:26:51.504Z,24.20
2018-08-12T15:29:22.656Z,24.20
2018-08-12T15:31:52.990Z,24.10
2018-08-12T15:34:24.353Z,24.10
2018-08-12T15:36:55.249Z,24.10
2018-08-12T15:39:25.504Z,24.10
2018-08-12T15:41:55.782Z,24.10
2018-08-12T15:44:28.382Z,24.00
2018-08-12T15:47:00.135Z,24.00
2018-08-12T15:49:31.004Z,24.00
2018-08-12T15:52:01.933Z,24.10
2018-08-12T15:54:32.694Z,24.20
2018-08-12T15:57:03.223Z,24.20
2018-08-12T15:59:33.894Z,24.30
2018-08-12T16:02:04.149Z,24.30
2018-08-12T16:04:35.104Z,24.30
2018-08-12T16:07:08.470Z,24.30
2018-08-12T16:09:46.091Z,24.30
2018-08-12T16:12:17.680Z,24.30
2018-08-12T16:14:49.452Z,24.30
2018-08-12T16:17:19.723Z,24.20
2018-08-12T16:19:50.248Z,24.20
2018-08-12T16:22:20.522Z,24.10
2018-08-12T16:24:52.318Z,24.00
2018-08-12T16:27:22.565Z,23.80
2018-08-12T16:29:52.968Z,23.70
2018-08-12T16:32:23.236Z,23.60
2018-08-12T16:34:54.638Z,23.50
2018-08-12T16:37:25.488Z,23.40
2018-08-12T16:39:55.728Z,23.30
2018-08-12T16:42:26.254Z,23.30
2018-08-12T16:44:57.090Z,23.20
2018-08-12T16:47:28.741Z,23.10
2018-08-12T16:49:59.962Z,23.10
2018-08-12T16:52:30.566Z,23.00
2018-08-12T16:55:01.901Z,22.90
2018-08-12T16:57:33.993Z,22.90
2018-08-12T17:00:05.582Z,22.80
2018-08-12T17:02:37.721Z,22.80
2018-08-12T17:05:12.333Z,22.80
2018-08-12T17:07:43.394Z,22.70
2018-08-12T17:10:15.689Z,22.70
2018-08-12T17:12:46.773Z,22.70
2018-08-12T17:15:20.771Z,22.70
2018-08-12T17:17:52.087Z,22.70
2018-08-12T17:20:23.028Z,22.70
2018-08-12T17:22:53.258Z,22.70
2018-08-12T17:25:23.461Z,22.80
2018-08-12T17:27:53.754Z,22.80
2018-08-12T17:30:25.017Z,22.90
2018-08-12T17:32:57.069Z,23.00
2018-08-12T17:35:27.971Z,23.20
2018-08-12T17:37:59.063Z,23.30
2018-08-12T17:40:30.034Z,23.50
2018-08-12T17:43:01.691Z,23.60
2018-08-12T17:45:38.673Z,23.70
2018-08-12T17:48:10.477Z,23.70
2018-08-12T17:50:41.625Z,23.80
2018-08-12T17:53:12.093Z,23.80
2018-08-12T17:55:42.833Z,23.80
2018-08-12T17:58:14.694Z,23.80
2018-08-12T18:00:46.760Z,23.90
2018-08-12T18:03:18.417Z,23.90
2018-08-12T18:05:49.611Z,24.00
2018-08-12T18:08:20.187Z,24.00
2018-08-12T18:10:51.362Z,24.10
2018-08-12T18:13:21.582Z,24.10
2018-08-12T18:15:52.863Z,24.00
2018-08-12T18:18:24.741Z,24.00
2018-08-12T18:20:55.711Z,24.00
2018-08-12T18:23:27.105Z,23.90
2018-08-12T18:25:58.072Z,23.90
2018-08-12T18:28:32.802Z,23.90
2018-08-12T18:31:05.227Z,23.80
2018-08-12T18:33:37.033Z,23.80
2018-08-12T18:36:08.454Z,23.80
2018-08-12T18:38:40.733Z,23.70
2018-08-12T18:41:11.922Z,23.70
2018-08-12T18:43:44.190Z,23.60
2018-08-12T18:46:15.385Z,23.60
2018-08-12T18:48:46.861Z,23.60
2018-08-12T18:51:19.140Z,23.50
2018-08-12T18:53:52.052Z,23.50
2018-08-12T18:56:23.706Z,23.50
2018-08-12T18:58:54.158Z,23.50
2018-08-12T19:01:30.799Z,23.50
2018-08-12T19:04:06.432Z,23.50
2018-08-12T19:06:38.640Z,23.50
2018-08-12T19:09:12.225Z,23.60
2018-08-12T19:11:42.314Z,23.60
2018-08-12T19:14:15.273Z,23.70
2018-08-12T19:16:50.608Z,23.70
2018-08-12T19:19:22.429Z,23.70
2018-08-12T19:21:54.171Z,23.70
2018-08-12T19:24:24.857Z,23.60
2018-08-12T19:26:55.354Z,23.60
2018-08-12T19:29:25.755Z,23.50
2018-08-12T19:31:57.291Z,23.40
2018-08-12T19:34:27.352Z,23.30
2018-08-12T19:36:58.131Z,23.30
2018-08-12T19:39:28.442Z,23.20
2018-08-12T19:41:59.431Z,23.20
2018-08-12T19:44:30.093Z,23.10
2018-08-12T19:47:01.591Z,23.10
2018-08-12T19:49:33.719Z,23.10
2018-08-12T19:52:04.217Z,23.00
2018-08-12T19:54:35.532Z,23.00
2018-08-12T19:57:05.778Z,22.90
2018-08-12T19:59:36.253Z,22.90
2018-08-12T20:02:07.655Z,22.80
2018-08-12T20:07:26.034Z,22.60
2018-08-12T20:09:57.420Z,22.50
2018-08-12T20:12:28.539Z,22.40
2018-08-12T20:14:58.603Z,22.30
2018-08-12T20:17:30.534Z,22.20
2018-08-12T20:20:00.940Z,22.10
2018-08-12T20:22:31.089Z,22.10
2018-08-12T20:25:01.780Z,22.00
2018-08-12T20:27:40.336Z,21.90
2018-08-12T20:30:13.258Z,21.80
2018-08-12T20:32:43.739Z,21.70
2018-08-12T20:35:15.510Z,21.70
2018-08-12T20:37:46.123Z,21.60
2018-08-12T20:40:17.356Z,21.60
2018-08-12T20:42:49.431Z,21.50
2018-08-12T20:45:22.379Z,21.50
2018-08-12T20:47:53.305Z,21.40
2018-08-12T20:50:25.390Z,21.40
2018-08-12T20:52:56.162Z,21.40
2018-08-12T20:55:26.402Z,21.40
2018-08-12T20:57:56.522Z,21.40
2018-08-12T21:00:27.312Z,21.30
2018-08-12T21:02:58.029Z,21.30
2018-08-12T21:05:28.730Z,21.30
2018-08-12T21:08:00.689Z,21.30
2018-08-12T21:10:32.351Z,21.30
2018-08-12T21:13:03.780Z,21.30
2018-08-12T21:15:34.070Z,21.20
2018-08-12T21:18:04.481Z,21.20
2018-08-12T21:20:35.573Z,21.20
2018-08-12T21:23:06.043Z,21.20
2018-08-12T21:25:36.347Z,21.20
2018-08-12T21:28:08.359Z,21.20
2018-08-12T21:30:38.602Z,21.20
2018-08-12T21:33:10.157Z,21.20
2018-08-12T21:35:41.070Z,21.20
2018-08-12T21:38:11.568Z,21.20
2018-08-12T21:40:48.553Z,21.20
2018-08-12T21:43:19.850Z,21.10
2018-08-12T21:45:51.170Z,21.10
2018-08-12T21:48:21.542Z,21.10
2018-08-12T21:50:52.134Z,21.10
2018-08-12T21:53:23.224Z,21.10
2018-08-12T21:55:57.570Z,21.10
2018-08-12T21:58:29.630Z,21.10
2018-08-12T22:01:00.426Z,21.10
2018-08-12T22:03:31.561Z,21.10
2018-08-12T22:06:02.940Z,21.10
2018-08-12T22:08:32.925Z,21.10
2018-08-12T22:11:03.754Z,21.00
2018-08-12T22:13:36.328Z,21.00
2018-08-12T22:16:08.024Z,21.00
2018-08-12T22:18:38.101Z,20.90
2018-08-12T22:21:09.746Z,20.90
2018-08-12T22:23:40.711Z,20.90
2018-08-12T22:26:11.040Z,20.90
2018-08-12T22:28:43.076Z,20.80
2018-08-12T22:31:13.922Z,20.80
2018-08-12T22:33:44.175Z,20.80
2018-08-12T22:36:16.053Z,20.70
2018-08-12T22:38:46.486Z,20.70
2018-08-12T22:41:17.477Z,20.70
2018-08-12T22:43:48.765Z,20.60
2018-08-12T22:46:19.928Z,20.60
2018-08-12T22:48:50.734Z,20.50
2018-08-12T22:51:21.154Z,20.50
2018-08-12T22:53:52.736Z,20.50
2018-08-12T22:56:22.992Z,20.50
2018-08-12T22:58:53.080Z,20.50
2018-08-12T23:01:25.719Z,20.50
2018-08-12T23:03:56.305Z,20.50
2018-08-12T23:06:27.151Z,20.50
2018-08-12T23:08:58.562Z,20.40
2018-08-12T23:11:29.166Z,20.50
2018-08-12T23:13:59.830Z,20.50
2018-08-12T23:16:46.465Z,20.50
2018-08-12T23:19:16.832Z,20.50
2018-08-12T23:21:48.593Z,20.50
2018-08-12T23:24:19.153Z,20.50
2018-08-12T23:26:49.782Z,20.50
2018-08-12T23:29:19.965Z,20.50
2018-08-12T23:31:51.497Z,20.50
2018-08-12T23:34:21.812Z,20.60
2018-08-12T23:36:52.857Z,20.60
2018-08-12T23:39:23.274Z,20.60
2018-08-12T23:41:53.354Z,20.60
2018-08-12T23:44:23.865Z,20.60
2018-08-12T23:46:55.685Z,20.60
2018-08-12T23:49:26.966Z,20.60
2018-08-12T23:51:57.378Z,20.60
2018-08-12T23:54:28.014Z,20.60
2018-08-12T23:56:58.214Z,20.60
2018-08-12T23:59:28.709Z,20.60
